Time;durP1;ratioP1;P1;durP2;ratioP2;P2;SDS_P1;SDS_P2;PMS_P1;PMS_P2;Temp;Humidity;BMP_temperature;BMP_pressure;BME280_temperature;BME280_humidity;BME280_pressure;Samples;Min_cycle;Max_cycle;Signal;HPM_P1;HPM_P2
2022/11/05 00:09:28;;;;;;;7.65;5.53;;;;;;;7.33;100.00;101385.16;5020525;28;20521;-91
2022/11/05 00:17:23;;;;;;;9.60;5.45;;;;;;;7.18;100.00;101392.28;5021515;28;20521;-92
2022/11/05 00:19:48;;;;;;;9.80;5.90;;;;;;;7.15;100.00;101385.41;5022134;28;20046;-93
2022/11/05 00:25:17;;;;;;;9.07;5.67;;;;;;;6.99;100.00;101388.16;5009401;28;20564;-92
2022/11/05 00:27:47;;;;;;;8.60;5.40;;;;;;;6.86;100.00;101399.50;5020507;28;20401;-92
2022/11/05 00:30:18;;;;;;;10.27;5.40;;;;;;;6.79;100.00;101391.28;5020650;28;20041;-92
2022/11/05 00:32:45;;;;;;;9.27;5.60;;;;;;;6.81;100.00;101393.78;5021447;28;20581;-92
2022/11/05 00:35:11;;;;;;;8.80;5.47;;;;;;;6.71;100.00;101397.53;5021996;28;20056;-92
2022/11/05 00:37:36;;;;;;;10.13;6.03;;;;;;;6.75;100.00;101398.84;5023284;28;20037;-92
2022/11/05 00:40:04;;;;;;;10.97;5.53;;;;;;;6.59;100.00;101394.38;5022589;28;20037;-92
2022/11/05 00:45:13;;;;;;;9.37;6.10;;;;;;;6.46;100.00;101396.75;5019986;28;20060;-92
2022/11/05 00:50:23;;;;;;;10.38;6.28;;;;;;;6.38;100.00;101402.16;5020231;28;20056;-91
2022/11/05 00:52:59;;;;;;;10.03;6.80;;;;;;;6.39;100.00;101409.19;5020634;28;20085;-89
2022/11/05 00:55:29;;;;;;;9.80;6.47;;;;;;;6.27;100.00;101402.47;5019712;28;20041;-91
2022/11/05 00:57:55;;;;;;;11.57;7.07;;;;;;;6.25;100.00;101408.88;5021353;28;20034;-91
2022/11/05 01:00:22;;;;;;;8.80;6.80;;;;;;;6.25;100.00;101410.72;5035380;28;20037;-92
2022/11/05 01:02:48;;;;;;;11.43;7.10;;;;;;;6.23;100.00;101407.38;5000350;28;20033;-91
2022/11/05 01:05:13;;;;;;;13.23;7.77;;;;;;;6.29;100.00;101409.38;5019040;28;20151;-92
2022/11/05 01:07:39;;;;;;;11.03;7.90;;;;;;;6.27;100.00;101410.56;5019208;28;20043;-91
2022/11/05 01:10:16;;;;;;;13.03;8.20;;;;;;;6.30;100.00;101408.38;5019358;28;20037;-92
2022/11/05 01:12:42;;;;;;;14.60;8.90;;;;;;;6.28;100.00;101417.63;5019920;28;20063;-92
2022/11/05 01:15:07;;;;;;;13.47;8.80;;;;;;;6.28;100.00;101431.09;5034964;28;20481;-93
2022/11/05 01:17:33;;;;;;;12.97;8.73;;;;;;;6.25;100.00;101427.72;5019064;28;20446;-91
2022/11/05 01:19:58;;;;;;;12.33;9.17;;;;;;;6.20;100.00;101435.47;5033116;28;20045;-92
2022/11/05 01:22:23;;;;;;;14.43;9.40;;;;;;;6.18;100.00;101442.84;5022181;28;20053;-92
2022/11/05 01:24:49;;;;;;;13.77;10.00;;;;;;;6.18;100.00;101440.16;5022822;28;20446;-91
2022/11/05 01:27:14;;;;;;;14.50;9.37;;;;;;;6.16;100.00;101447.59;5021951;28;20132;-92
2022/11/05 01:29:40;;;;;;;14.50;9.77;;;;;;;6.14;100.00;101451.44;5024751;28;20124;-92
2022/11/05 01:32:05;;;;;;;14.80;9.90;;;;;;;6.14;100.00;101446.88;5021785;28;20706;-89
2022/11/05 01:34:31;;;;;;;13.23;9.53;;;;;;;6.11;100.00;101449.09;5024456;28;20041;-90
2022/11/05 01:36:56;;;;;;;13.70;9.50;;;;;;;6.05;100.00;101454.13;5039039;28;20041;-91
2022/11/05 01:39:22;;;;;;;15.57;9.90;;;;;;;6.03;100.00;101453.44;5023572;28;20045;-92
2022/11/05 01:41:47;;;;;;;13.37;9.60;;;;;;;6.04;100.00;101459.69;5024669;28;20041;-91
2022/11/05 01:44:50;;;;;;;13.80;9.40;;;;;;;6.04;100.00;101459.69;5024126;28;20033;-93
2022/11/05 01:47:32;;;;;;;12.20;9.53;;;;;;;5.98;100.00;101454.94;5038821;28;20037;-93
2022/11/05 01:50:01;;;;;;;14.80;9.77;;;;;;;5.98;100.00;101463.03;5024590;28;20061;-92
2022/11/05 01:52:59;;;;;;;11.50;8.70;;;;;;;5.96;100.00;101465.84;5024006;28;20744;-92
2022/11/05 01:55:29;;;;;;;15.00;8.80;;;;;;;5.94;100.00;101465.16;5006753;28;20037;-92
2022/11/05 01:57:56;;;;;;;12.83;8.77;;;;;;;5.95;100.00;101461.47;5023757;28;20568;-88
2022/11/05 02:00:22;;;;;;;13.23;8.77;;;;;;;5.95;100.00;101456.09;5021907;28;20052;-91
2022/11/05 02:02:47;;;;;;;14.43;9.43;;;;;;;5.96;100.00;101449.72;5005594;28;20041;-91
2022/11/05 02:05:14;;;;;;;15.33;9.87;;;;;;;5.97;100.00;101447.84;5037229;28;20141;-91
2022/11/05 02:07:41;;;;;;;15.00;9.43;;;;;;;5.95;100.00;101442.63;5022481;28;20041;-91
2022/11/05 02:10:09;;;;;;;14.23;9.40;;;;;;;5.94;100.00;101442.81;5022190;28;20033;-92
2022/11/05 02:12:38;;;;;;;13.83;9.20;;;;;;;5.89;100.00;101438.78;5004836;28;20033;-88
2022/11/05 02:15:04;;;;;;;13.23;9.07;;;;;;;5.84;100.00;101433.03;5021982;28;20052;-93
2022/11/05 02:17:40;;;;;;;13.27;9.33;;;;;;;5.86;100.00;101439.13;5022289;28;20116;-91
2022/11/05 02:20:15;;;;;;;13.13;8.90;;;;;;;5.87;100.00;101446.16;5037511;28;20033;-91
2022/11/05 02:22:47;;;;;;;12.80;8.70;;;;;;;5.85;100.00;101445.50;5021234;28;20068;-90
2022/11/05 02:25:18;;;;;;;12.07;8.80;;;;;;;5.85;100.00;101450.03;5003457;28;20053;-91
2022/11/05 02:28:12;;;;;;;12.00;8.60;;;;;;;5.81;100.00;101449.53;5022187;28;20091;-90
2022/11/05 02:30:45;;;;;;;14.47;8.77;;;;;;;5.74;100.00;101445.81;5022685;28;20038;-90
2022/11/05 02:33:21;;;;;;;12.30;8.43;;;;;;;5.75;100.00;101442.97;5020825;28;20034;-92
2022/11/05 02:35:51;;;;;;;11.90;8.23;;;;;;;5.72;100.00;101440.59;5021698;28;20038;-91
2022/11/05 02:38:29;;;;;;;13.27;7.73;;;;;;;5.69;100.00;101442.78;5023072;28;20029;-89
2022/11/05 02:41:07;;;;;;;14.63;8.10;;;;;;;5.68;100.00;101438.41;5024439;28;20696;-90
2022/11/05 02:43:32;;;;;;;15.80;8.57;;;;;;;5.57;100.00;101426.94;5023183;28;20036;-90
2022/11/05 02:46:07;;;;;;;12.10;7.87;;;;;;;5.63;100.00;101432.66;5004929;28;20042;-91
2022/11/05 02:48:49;;;;;;;10.80;7.87;;;;;;;5.61;100.00;101427.47;5024480;28;20047;-92
2022/11/05 02:51:29;;;;;;;13.30;7.73;;;;;;;5.55;100.00;101439.72;5013822;28;20048;-88
2022/11/05 02:54:13;;;;;;;13.77;7.77;;;;;;;5.56;100.00;101438.72;5022326;28;20043;-88
2022/11/05 02:56:42;;;;;;;15.33;8.50;;;;;;;5.46;100.00;101435.31;5020490;28;20478;-90
2022/11/05 02:59:08;;;;;;;11.27;7.67;;;;;;;5.46;100.00;101440.69;5021075;28;20073;-92
2022/11/05 03:01:35;;;;;;;10.60;7.70;;;;;;;5.43;100.00;101443.72;5035381;28;20043;-91
2022/11/05 03:04:03;;;;;;;14.10;7.93;;;;;;;5.39;100.00;101439.69;5021195;28;20095;-90
2022/11/05 03:07:07;;;;;;;11.17;8.03;;;;;;;5.41;100.00;101429.59;5020252;28;20074;-90
2022/11/05 03:09:53;;;;;;;11.60;7.90;;;;;;;5.36;100.00;101424.72;5020739;28;20041;-91
2022/11/05 03:12:55;;;;;;;12.70;8.00;;;;;;;5.33;100.00;101421.50;5020710;28;20095;-89
2022/11/05 03:15:46;;;;;;;13.17;8.17;;;;;;;5.30;100.00;101429.91;4996050;28;20044;-91
2022/11/05 03:18:21;;;;;;;13.67;8.47;;;;;;;5.26;100.00;101431.22;5019911;28;20037;-91
2022/11/05 03:20:53;;;;;;;;;;;;;;;5.36;100.00;101434.63;5004241;28;20053;-90
2022/11/05 03:23:47;;;;;;;14.87;8.90;;;;;;;5.24;100.00;101429.53;5020443;28;20011;-88
2022/11/05 03:26:30;;;;;;;15.07;8.37;;;;;;;5.22;100.00;101444.13;5019329;28;20480;-91
2022/11/05 03:29:07;;;;;;;12.80;8.70;;;;;;;5.18;100.00;101440.09;5019377;28;20037;-90
2022/11/05 03:31:35;;;;;;;14.07;9.63;;;;;;;5.15;100.00;101449.31;4996719;28;1101724;-91
2022/11/05 03:34:04;;;;;;;14.93;9.83;;;;;;;5.14;100.00;101438.72;5020246;28;20072;-90
2022/11/05 03:36:38;;;;;;;15.10;9.67;;;;;;;5.11;100.00;101439.88;5020538;28;20060;-88
2022/11/05 03:39:09;;;;;;;15.40;9.32;;;;;;;5.12;100.00;101438.91;5020222;28;20047;-90
2022/11/05 03:41:39;;;;;;;14.27;9.60;;;;;;;5.05;100.00;101441.38;5019916;28;20389;-90
2022/11/05 03:44:06;;;;;;;13.73;9.67;;;;;;;5.01;100.00;101439.19;5001550;28;20041;-89
2022/11/05 03:46:39;;;;;;;15.13;9.60;;;;;;;5.04;100.00;101449.59;5020094;28;20549;-91
2022/11/05 03:49:09;;;;;;;14.17;9.60;;;;;;;5.02;100.00;101443.56;5020320;28;20029;-91
2022/11/05 03:51:47;;;;;;;16.00;10.13;;;;;;;5.02;100.00;101446.25;5036158;28;20529;-92
2022/11/05 03:54:13;;;;;;;18.60;10.43;;;;;;;4.97;100.00;101446.72;5019870;28;20046;-91
2022/11/05 03:57:17;;;;;;;16.07;10.73;;;;;;;5.04;100.00;101447.75;5035142;28;20127;-90
2022/11/05 03:59:47;;;;;;;15.40;10.93;;;;;;;5.00;100.00;101440.19;5020945;28;20106;-91
2022/11/05 04:02:15;;;;;;;17.87;11.03;;;;;;;4.94;100.00;101440.81;5020433;28;20436;-91
2022/11/05 04:04:41;;;;;;;16.70;11.40;;;;;;;4.94;100.00;101441.66;5019922;28;20061;-90
2022/11/05 04:15:19;;;;;;;17.27;12.25;;;;;;;4.84;100.00;101447.16;5019898;28;20060;-89
2022/11/05 04:17:44;;;;;;;18.90;12.30;;;;;;;4.84;100.00;101460.59;5021108;28;20037;-90
2022/11/05 04:25:43;;;;;;;17.60;12.20;;;;;;;4.81;100.00;101466.25;5019883;28;20149;-90
2022/11/05 04:28:09;;;;;;;17.77;12.57;;;;;;;4.80;100.00;101461.91;5021120;28;20029;-91
2022/11/05 04:30:34;;;;;;;20.37;12.93;;;;;;;4.79;100.00;101464.75;5034859;28;20037;-90
2022/11/05 04:33:04;;;;;;;20.27;13.23;;;;;;;4.77;100.00;101469.44;5019885;28;20102;-91
2022/11/05 04:35:33;;;;;;;20.87;13.30;;;;;;;4.78;100.00;101473.81;5020124;28;20405;-89
2022/11/05 04:37:59;;;;;;;19.63;13.33;;;;;;;4.71;100.00;101462.84;5019674;28;20033;-91
2022/11/05 04:40:24;;;;;;;21.73;13.97;;;;;;;4.71;100.00;101477.09;5020190;28;20079;-92
2022/11/05 04:42:52;;;;;;;18.30;13.73;;;;;;;4.67;100.00;101475.75;5019423;28;20039;-93
2022/11/05 04:45:18;;;;;;;19.37;13.97;;;;;;;4.67;100.00;101473.06;5019888;28;20029;-92
2022/11/05 04:47:43;;;;;;;19.83;14.27;;;;;;;4.62;100.00;101474.53;5020523;28;20036;-92
2022/11/05 04:50:10;;;;;;;21.63;14.23;;;;;;;4.64;100.00;101480.59;5019683;28;20043;-92
2022/11/05 04:52:36;;;;;;;19.87;14.40;;;;;;;4.58;100.00;101476.66;5001745;28;20033;-91
2022/11/05 04:55:02;;;;;;;19.40;13.83;;;;;;;4.56;100.00;101474.16;5020382;28;20040;-92
2022/11/05 04:57:27;;;;;;;18.00;13.60;;;;;;;4.53;100.00;101479.00;5019835;28;20477;-91
2022/11/05 04:59:54;;;;;;;21.43;14.57;;;;;;;4.54;100.00;101486.91;5019379;28;20095;-91
2022/11/05 05:02:19;;;;;;;19.73;14.10;;;;;;;4.54;100.00;101486.91;5019500;28;21345;-92
2022/11/05 05:04:45;;;;;;;20.70;15.03;;;;;;;4.52;100.00;101478.16;5019640;28;20370;-92
2022/11/05 05:07:10;;;;;;;20.20;14.90;;;;;;;4.50;100.00;101481.97;5019216;28;20045;-90
2022/11/05 05:09:35;;;;;;;18.53;14.27;;;;;;;4.49;100.00;101485.69;5018927;28;20120;-91
2022/11/05 05:12:01;;;;;;;19.20;15.60;;;;;;;4.49;100.00;101494.56;5019469;28;20111;-91
2022/11/05 05:14:27;;;;;;;24.03;16.50;;;;;;;4.52;100.00;101491.56;5036132;28;20311;-90
2022/11/05 05:16:52;;;;;;;20.20;15.43;;;;;;;4.50;100.00;101503.44;5033901;28;20145;-91
2022/11/05 05:19:17;;;;;;;20.37;15.83;;;;;;;4.54;100.00;101511.06;5017484;28;20412;-91
2022/11/05 05:21:43;;;;;;;21.43;15.67;;;;;;;4.50;100.00;101509.69;5017396;28;20441;-92
2022/11/05 05:24:11;;;;;;;21.40;15.93;;;;;;;4.56;100.00;101509.03;5018874;28;20076;-90
2022/11/05 05:26:39;;;;;;;22.97;16.53;;;;;;;4.53;100.00;101504.00;5019193;28;20587;-92
2022/11/05 05:29:05;;;;;;;21.70;15.83;;;;;;;4.49;100.00;101491.88;5019453;28;20045;-91
2022/11/05 05:31:31;;;;;;;23.00;16.33;;;;;;;4.55;100.00;101501.16;5019634;28;20152;-92
2022/11/05 05:33:57;;;;;;;21.47;16.53;;;;;;;4.55;100.00;101504.66;5018373;28;20037;-92
2022/11/05 05:36:22;;;;;;;22.93;16.57;;;;;;;4.53;100.00;101500.47;5035234;28;20029;-90
2022/11/05 05:38:48;;;;;;;22.93;15.93;;;;;;;4.53;100.00;101508.53;5018502;28;20374;-92
2022/11/05 05:41:14;;;;;;;23.20;16.60;;;;;;;4.50;100.00;101509.69;5019399;28;20040;-91
2022/11/05 05:43:39;;;;;;;21.23;16.37;;;;;;;4.49;100.00;101510.66;5033712;28;20103;-92
2022/11/05 05:46:07;;;;;;;21.03;16.03;;;;;;;4.48;100.00;101517.03;5020552;28;20550;-91
2022/11/05 05:48:33;;;;;;;21.03;16.40;;;;;;;4.46;100.00;101502.94;5019309;28;20108;-89
2022/11/05 05:51:03;;;;;;;22.50;16.87;;;;;;;4.45;100.00;101505.75;5018594;28;20083;-88
2022/11/05 05:53:29;;;;;;;21.53;16.13;;;;;;;4.45;100.00;101506.63;5018164;28;20662;-91
2022/11/05 05:55:56;;;;;;;21.57;16.30;;;;;;;4.45;100.00;101511.97;5018889;28;20404;-90
2022/11/05 05:58:29;;;;;;;21.50;17.00;;;;;;;4.45;100.00;101511.97;5017704;28;20519;-91
2022/11/05 06:00:59;;;;;;;22.30;17.27;;;;;;;4.49;100.00;101510.66;5034655;28;20606;-90
2022/11/05 06:03:24;;;;;;;23.50;17.50;;;;;;;4.48;100.00;101514.34;5018388;28;20107;-91
2022/11/05 06:05:49;;;;;;;22.00;17.63;;;;;;;4.45;100.00;101517.34;5020418;28;20500;-92
2022/11/05 06:08:15;;;;;;;21.00;17.13;;;;;;;4.46;100.00;101515.50;5023495;28;20095;-91
2022/11/05 06:10:40;;;;;;;23.77;17.67;;;;;;;4.44;100.00;101515.66;5005240;28;20037;-90
2022/11/05 06:13:05;;;;;;;21.87;17.17;;;;;;;4.44;100.00;101515.66;5022794;28;20033;-91
2022/11/05 06:15:31;;;;;;;22.10;17.27;;;;;;;4.45;100.00;101511.97;5023695;28;20025;-91
2022/11/05 06:17:56;;;;;;;23.80;17.93;;;;;;;4.44;100.00;101521.03;5021780;28;20033;-88
2022/11/05 06:20:21;;;;;;;20.93;17.13;;;;;;;4.35;100.00;101508.53;5022714;28;20591;-91
2022/11/05 06:22:56;;;;;;;24.20;17.13;;;;;;;4.40;100.00;101523.16;4989390;28;20045;-91
2022/11/05 06:25:23;;;;;;;23.50;18.43;;;;;;;4.42;100.00;101523.03;5021511;28;20085;-91
2022/11/05 06:27:48;;;;;;;22.23;17.33;;;;;;;4.42;100.00;101517.66;5021526;28;20041;-89
2022/11/05 06:30:14;;;;;;;24.63;17.23;;;;;;;4.43;100.00;101521.19;5021759;28;20037;-89
2022/11/05 06:32:39;;;;;;;20.90;16.57;;;;;;;4.41;100.00;101521.34;5022533;28;20096;-89
2022/11/05 06:35:04;;;;;;;21.93;17.13;;;;;;;4.37;100.00;101525.31;5022035;28;20129;-87
2022/11/05 06:37:32;;;;;;;23.73;17.03;;;;;;;4.40;100.00;101525.84;4997162;28;20057;-89
2022/11/05 06:39:58;;;;;;;21.60;17.27;;;;;;;4.39;100.00;101528.69;5037332;28;20065;-90
2022/11/05 06:42:23;;;;;;;21.57;16.27;;;;;;;4.39;100.00;101534.06;5021363;28;20036;-90
2022/11/05 06:44:49;;;;;;;22.40;17.07;;;;;;;4.38;100.00;101532.38;5022126;28;20098;-89
2022/11/05 06:47:14;;;;;;;22.57;15.90;;;;;;;4.38;100.00;101533.22;5020118;28;20037;-90
2022/11/05 06:49:39;;;;;;;20.70;16.30;;;;;;;4.44;100.00;101529.06;5016956;28;20041;-91
2022/11/05 06:52:05;;;;;;;19.97;16.33;;;;;;;4.44;100.00;101529.06;5021213;28;20041;-88
2022/11/05 06:54:30;;;;;;;23.13;17.13;;;;;;;4.45;100.00;101528.09;5022082;28;20029;-88
2022/11/05 06:56:55;;;;;;;20.70;15.53;;;;;;;4.48;100.00;101535.81;5020149;28;20627;-89
2022/11/05 06:59:21;;;;;;;23.57;15.80;;;;;;;4.48;100.00;101535.81;5003446;28;20025;-89
2022/11/05 07:01:46;;;;;;;19.90;15.50;;;;;;;4.52;100.00;101534.50;4987923;28;20040;-91
2022/11/05 07:04:11;;;;;;;21.33;16.53;;;;;;;4.54;100.00;101537.03;5021386;28;20171;-91
2022/11/05 07:06:37;;;;;;;20.90;15.43;;;;;;;4.54;100.00;101540.56;5035122;28;20143;-91
2022/11/05 07:09:03;;;;;;;21.43;16.07;;;;;;;4.57;100.00;101551.00;5021599;28;20044;-90
2022/11/05 07:11:28;;;;;;;20.40;15.67;;;;;;;4.57;100.00;101556.38;5004268;28;20041;-89
2022/11/05 07:13:53;;;;;;;20.33;15.80;;;;;;;4.62;100.00;101547.00;5020668;28;20075;-91
2022/11/05 07:16:57;;;;;;;22.07;15.93;;;;;;;4.67;100.00;101558.13;5021256;28;20072;-91
2022/11/05 07:19:22;;;;;;;18.80;14.33;;;;;;;4.69;100.00;101556.97;5020770;28;20040;-90
2022/11/05 07:21:49;;;;;;;20.33;15.07;;;;;;;4.71;100.00;101554.97;5020989;28;20037;-87
2022/11/05 07:24:15;;;;;;;19.77;14.23;;;;;;;4.76;100.00;101565.25;5020096;28;20037;-90
2022/11/05 07:26:40;;;;;;;19.03;14.43;;;;;;;4.82;100.00;101558.41;5002677;28;20044;-88
2022/11/05 07:29:06;;;;;;;20.17;13.83;;;;;;;4.94;100.00;101569.72;5019724;28;20044;-89
2022/11/05 07:31:31;;;;;;;20.00;13.63;;;;;;;5.03;100.00;101558.03;5020857;28;20049;-89
2022/11/05 07:33:58;;;;;;;18.10;12.20;;;;;;;5.07;100.00;101554.03;5020273;28;20044;-87
2022/11/05 07:36:23;;;;;;;16.87;12.13;;;;;;;5.27;100.00;101561.88;5020154;28;20083;-88
2022/11/05 07:38:49;;;;;;;18.43;12.30;;;;;;;5.40;100.00;101565.00;5002335;28;20217;-90
2022/11/05 07:41:14;;;;;;;16.73;11.13;;;;;;;5.51;100.00;101575.44;5020603;28;20541;-89
2022/11/05 07:43:39;;;;;;;15.20;10.30;;;;;;;5.68;100.00;101579.03;5020232;28;20421;-89
2022/11/05 07:46:05;;;;;;;13.77;9.80;;;;;;;5.86;100.00;101587.03;5020962;28;20033;-89
2022/11/05 07:48:30;;;;;;;13.93;9.80;;;;;;;5.95;100.00;101589.75;5002681;28;20044;-88
2022/11/05 07:50:55;;;;;;;14.37;9.30;;;;;;;6.13;100.00;101573.53;5020816;28;20036;-89
2022/11/05 07:53:21;;;;;;;12.67;9.27;;;;;;;6.31;100.00;101576.06;5034595;28;20044;-91
2022/11/05 07:55:46;;;;;;;12.40;9.30;;;;;;;6.45;100.00;101585.38;5020936;28;20469;-89
2022/11/05 07:58:12;;;;;;;13.43;9.03;;;;;;;6.61;100.00;101577.31;5019498;28;20049;-88
2022/11/05 08:00:37;;;;;;;11.77;8.17;;;;;;;6.72;100.00;101576.97;5019920;28;20529;-88
2022/11/05 08:03:10;;;;;;;16.33;8.97;;;;;;;6.92;100.00;101588.25;5019857;28;20041;-90
2022/11/05 08:05:38;;;;;;;12.13;7.97;;;;;;;7.09;100.00;101585.53;5020053;28;20137;-90
2022/11/05 08:08:04;;;;;;;13.07;8.17;;;;;;;7.32;100.00;101584.81;4996816;28;20076;-88
2022/11/05 08:10:29;;;;;;;12.77;8.20;;;;;;;7.47;100.00;101585.78;5020107;28;20187;-89
2022/11/05 08:12:55;;;;;;;10.50;7.83;;;;;;;7.69;100.00;101583.34;5019544;28;20044;-91
2022/11/05 08:15:22;;;;;;;12.60;7.70;;;;;;;7.85;100.00;101590.53;5020960;28;20079;-89
2022/11/05 08:17:48;;;;;;;11.93;7.67;;;;;;;7.86;98.47;101584.97;5034202;28;20038;-87
2022/11/05 08:20:13;;;;;;;8.77;7.17;;;;;;;7.91;98.58;101587.97;5019153;28;20041;-87
2022/11/05 08:22:43;;;;;;;10.40;7.60;;;;;;;8.11;98.83;101584.84;4974045;28;20041;-90
2022/11/05 08:25:10;;;;;;;9.33;7.00;;;;;;;8.14;96.62;101589.03;5019532;28;20112;-87
2022/11/05 08:27:36;;;;;;;11.93;7.63;;;;;;;8.28;96.70;101575.63;5018465;28;20037;-90
2022/11/05 08:30:03;;;;;;;10.93;7.03;;;;;;;8.42;96.48;101581.28;5018592;28;20041;-90
2022/11/05 08:32:29;;;;;;;11.43;7.80;;;;;;;8.63;96.01;101580.63;5018989;28;20049;-89
2022/11/05 08:34:54;;;;;;;11.63;7.10;;;;;;;8.72;95.15;101587.66;5018132;28;20156;-90
2022/11/05 08:37:19;;;;;;;12.27;7.57;;;;;;;8.93;94.53;101595.09;5019720;28;20048;-89
2022/11/05 08:39:44;;;;;;;11.93;7.20;;;;;;;9.04;92.88;101598.34;5018507;28;20040;-88
2022/11/05 08:42:10;;;;;;;12.00;7.40;;;;;;;9.24;91.99;101596.81;5019775;28;20041;-88
2022/11/05 08:44:35;;;;;;;15.33;8.00;;;;;;;9.35;92.26;101589.28;5019702;28;20037;-89
2022/11/05 08:47:01;;;;;;;11.87;7.20;;;;;;;9.41;90.42;101589.38;5033333;28;20041;-92
2022/11/05 08:49:26;;;;;;;12.43;7.47;;;;;;;9.48;89.26;101588.59;5034016;28;20083;-90
2022/11/05 08:51:51;;;;;;;11.37;7.47;;;;;;;9.72;89.64;101590.19;5034232;28;20045;-89
2022/11/05 08:54:16;;;;;;;12.93;7.13;;;;;;;9.74;89.48;101596.28;5019553;28;20106;-88
2022/11/05 08:56:42;;;;;;;13.43;7.57;;;;;;;9.89;89.51;101586.25;5019445;28;20067;-89
2022/11/05 08:59:07;;;;;;;10.87;6.90;;;;;;;10.02;88.01;101596.41;5019752;28;20175;-88
2022/11/05 09:01:33;;;;;;;13.47;7.43;;;;;;;9.92;86.84;101596.69;5019603;28;20549;-90
2022/11/05 09:03:58;;;;;;;13.13;7.87;;;;;;;10.13;85.37;101597.78;5018089;28;21749;-89
2022/11/05 09:06:24;;;;;;;10.53;7.70;;;;;;;10.14;86.67;101594.91;5019182;28;20786;-88
2022/11/05 09:08:49;;;;;;;10.80;7.80;;;;;;;10.40;86.19;101592.69;5019154;28;20034;-91
2022/11/05 09:11:15;;;;;;;12.33;7.40;;;;;;;10.49;84.94;101593.44;5019624;28;20076;-88
2022/11/05 09:13:40;;;;;;;12.93;7.13;;;;;;;10.69;82.16;101593.59;5018954;28;20789;-86
2022/11/05 09:16:18;;;;;;;10.77;7.40;;;;;;;10.67;84.02;101595.69;5019048;28;20055;-88
2022/11/05 09:18:44;;;;;;;12.10;7.17;;;;;;;10.62;82.53;101597.09;5000645;28;20045;-88
2022/11/05 09:21:10;;;;;;;11.57;7.37;;;;;;;10.59;82.16;101597.50;5018118;28;20029;-88
2022/11/05 09:23:35;;;;;;;14.13;7.47;;;;;;;10.67;82.13;101590.25;5033258;28;20072;-86
2022/11/05 09:26:00;;;;;;;14.83;7.60;;;;;;;10.67;82.44;101592.97;5019975;28;20059;-86
2022/11/05 09:28:27;;;;;;;10.90;7.83;;;;;;;10.87;81.48;101598.59;5000500;28;20160;-86
2022/11/05 09:30:53;;;;;;;12.30;7.30;;;;;;;11.14;80.10;101599.63;5018972;28;20021;-87
2022/11/05 09:33:21;;;;;;;13.57;7.20;;;;;;;10.79;81.20;101608.50;5018645;28;20021;-85
2022/11/05 09:35:46;;;;;;;11.93;7.63;;;;;;;11.02;82.36;101601.22;5019454;28;20025;-86
2022/11/05 09:38:12;;;;;;;13.17;7.20;;;;;;;11.17;80.95;101596.50;5017417;28;20459;-88
2022/11/05 09:40:48;;;;;;;10.23;6.83;;;;;;;11.24;81.39;101600.09;5018387;28;20032;-87
2022/11/05 09:43:50;;;;;;;10.50;6.53;;;;;;;11.35;80.24;101611.47;5020946;28;20083;-86
2022/11/05 09:46:23;;;;;;;11.67;6.90;;;;;;;11.03;80.60;101611.00;5023238;28;20033;-86
2022/11/05 09:48:54;;;;;;;10.33;6.23;;;;;;;11.38;80.31;101611.06;5022055;28;20041;-86
2022/11/05 09:51:20;;;;;;;11.03;6.67;;;;;;;11.69;80.06;101607.06;5023027;28;20099;-86
2022/11/05 09:53:47;;;;;;;12.17;7.20;;;;;;;11.81;79.23;101621.75;5023006;28;20029;-87
2022/11/05 09:56:25;;;;;;;12.83;6.67;;;;;;;11.95;79.56;101617.25;5021501;28;20038;-89
2022/11/05 09:59:02;;;;;;;9.53;6.10;;;;;;;11.92;77.38;101629.31;5021884;28;20041;-85
2022/11/05 10:01:32;;;;;;;10.53;6.20;;;;;;;12.12;77.38;101628.63;5021682;28;20073;-86
2022/11/05 10:04:06;;;;;;;10.10;6.00;;;;;;;12.18;78.66;101626.97;5001243;28;20268;-87
2022/11/05 10:06:32;;;;;;;11.70;6.05;;;;;;;12.11;77.19;101632.38;5022497;28;20068;-86
2022/11/05 10:09:46;;;;;;;10.77;6.30;;;;;;;12.83;74.59;101641.75;5004433;28;20124;-86
2022/11/05 10:12:23;;;;;;;9.40;5.87;;;;;;;12.12;76.78;101634.06;5009201;28;20057;-88
2022/11/05 10:15:01;;;;;;;11.40;5.47;;;;;;;11.97;77.24;101626.06;5022894;28;20362;-83
2022/11/05 10:17:27;;;;;;;13.43;6.13;;;;;;;11.72;76.76;101639.25;5022340;28;20059;-81
2022/11/05 10:19:55;;;;;;;8.00;6.10;;;;;;;11.46;78.22;101635.31;5020668;28;20033;-82
2022/11/05 10:22:20;;;;;;;8.90;5.30;;;;;;;11.36;79.20;101640.28;5021854;28;20033;-83
2022/11/05 10:24:48;;;;;;;8.90;6.03;;;;;;;11.19;80.20;101651.41;5037684;28;20032;-81
2022/11/05 10:27:32;;;;;;;9.77;5.83;;;;;;;11.17;82.98;101642.63;5020514;28;20071;-82
2022/11/05 10:29:58;;;;;;;9.97;5.60;;;;;;;10.92;81.25;101645.75;5002926;28;20083;-79
2022/11/05 10:32:34;;;;;;;11.00;5.93;;;;;;;10.99;82.50;101643.09;5021565;28;20065;-77
2022/11/05 10:35:03;;;;;;;9.40;6.03;;;;;;;10.85;82.19;101641.28;5021440;28;20046;-78
2022/11/05 10:37:30;;;;;;;14.33;6.33;;;;;;;10.64;82.84;101649.22;5022140;28;20375;-81
2022/11/05 10:39:56;;;;;;;10.07;6.10;;;;;;;10.72;86.26;101653.69;5003906;28;20792;-81
2022/11/05 10:42:44;;;;;;;11.70;6.30;;;;;;;10.74;85.66;101654.34;5035737;28;20037;-81
2022/11/05 10:45:30;;;;;;;10.60;5.73;;;;;;;10.69;84.99;101639.69;5021628;28;20045;-83
2022/11/05 10:48:08;;;;;;;10.97;5.80;;;;;;;10.69;85.26;101650.53;5020353;28;20033;-80
2022/11/05 10:50:34;;;;;;;9.73;5.80;;;;;;;10.52;82.41;101650.75;5022344;28;20370;-81
2022/11/05 10:53:12;;;;;;;10.43;5.47;;;;;;;10.53;83.84;101638.06;5020696;28;20029;-77
2022/11/05 10:55:45;;;;;;;9.23;5.57;;;;;;;10.41;84.41;101641.25;5020850;28;20047;-83
2022/11/05 10:58:16;;;;;;;8.87;5.70;;;;;;;10.30;85.00;101634.44;5036458;28;20033;-82
2022/11/05 11:00:44;;;;;;;10.97;5.83;;;;;;;10.27;85.46;101642.13;5021924;28;20034;-80
2022/11/05 11:03:48;;;;;;;12.20;6.10;;;;;;;10.23;86.19;101641.66;5002000;28;20034;-83
2022/11/05 11:06:27;;;;;;;13.63;6.57;;;;;;;10.25;85.73;101646.88;5020784;28;20522;-82
2022/11/05 11:08:55;;;;;;;10.83;6.50;;;;;;;10.12;85.58;101639.44;5020448;28;20052;-79
2022/11/05 11:11:25;;;;;;;10.47;6.50;;;;;;;10.02;86.92;101633.47;5021563;28;20048;-79
2022/11/05 11:13:59;;;;;;;12.10;6.57;;;;;;;10.02;88.28;101644.31;5021696;28;20037;-82
2022/11/05 11:16:30;;;;;;;14.63;7.10;;;;;;;10.04;88.21;101631.44;5001241;28;20037;-80
2022/11/05 11:19:00;;;;;;;11.43;6.93;;;;;;;10.07;86.69;101633.75;5020404;28;20041;-79
2022/11/05 11:21:44;;;;;;;12.73;6.60;;;;;;;10.11;87.53;101632.34;5021223;28;20033;-80
2022/11/05 11:25:05;;;;;;;11.75;7.30;;;;;;;10.14;88.27;101637.38;5012126;28;20034;-81
2022/11/05 11:27:33;;;;;;;12.30;6.83;;;;;;;10.04;87.16;101621.44;5020821;28;20053;-79
2022/11/05 11:30:03;;;;;;;14.30;7.40;;;;;;;9.98;87.11;101622.16;5035693;28;20032;-80
2022/11/05 11:32:36;;;;;;;12.10;7.40;;;;;;;10.03;87.92;101630.56;5020424;28;20427;-81
2022/11/05 11:35:03;;;;;;;11.43;7.10;;;;;;;9.93;88.20;101625.47;5021134;28;20071;-81
2022/11/05 11:37:40;;;;;;;13.03;7.80;;;;;;;10.00;89.43;101630.13;5020248;28;20069;-80
2022/11/05 11:40:20;;;;;;;12.27;7.70;;;;;;;10.06;89.87;101623.94;5020845;28;20445;-81
2022/11/05 11:42:49;;;;;;;15.57;9.30;;;;;;;10.09;89.67;101626.25;5020297;28;20051;-80
2022/11/05 11:45:31;;;;;;;13.33;7.80;;;;;;;10.20;88.81;101633.06;5019183;28;20037;-80
2022/11/05 11:47:56;;;;;;;12.47;8.03;;;;;;;10.14;87.74;101627.41;5020489;28;20112;-80
2022/11/05 11:50:42;;;;;;;12.57;8.20;;;;;;;10.27;88.54;101626.72;5020762;28;20408;-82
2022/11/05 11:53:34;;;;;;;13.37;8.30;;;;;;;10.24;88.83;101627.09;5032947;28;20045;-80
2022/11/05 11:56:10;;;;;;;13.87;8.37;;;;;;;10.13;88.10;101625.72;5002155;28;20512;-80
2022/11/05 11:58:39;;;;;;;14.83;7.80;;;;;;;10.23;88.64;101622.69;5020256;28;20449;-79
2022/11/05 12:01:08;;;;;;;13.33;8.47;;;;;;;10.34;89.06;101621.38;5019809;28;20132;-82
2022/11/05 12:03:50;;;;;;;13.00;7.70;;;;;;;10.60;89.68;101625.44;5020389;28;20029;-82
2022/11/05 12:06:23;;;;;;;16.90;7.93;;;;;;;10.73;86.14;101616.56;5019152;28;20044;-79